Paul Gauguin — C6TH5 — position and weather

sailwx.info

Track history (hours):
 
Tides and Currents Weather Stations Pressure Air Temp Water Temp Dewpoint Dewpoint Depression Visibility Wind Speed Wind Dir Waves Ship Positions

Paul Gauguin

Operator: V Ships

Last reported at 2017-Jun-25 08:01 UTC. Time now 2017-Jun-25 08:34 UTC.
Position S 34°48' E 138°20'.

Length 277 m; draft 12.1 m.

Type: Ship (hazmat cat A). MMSI: 311632000.

Date/timePositionNaut miles runAvg speedWind from/ knotsBaromVisibWave heightAir tempDewpointWater temp
2017-Jun-25 08:01S 34°48' E 138°20'1 3.1
2017-Jun-25 07:38S 34°49' E 138°20'7 7.8
2017-Jun-25 06:48S 34°55' E 138°16'312.0
2017-Jun-25 06:30S 34°59' E 138°15'  
2017-Jun-22 13:21S 38°29' E 148°37'412.4
2017-Jun-22 12:59S 38°27' E 148°42'612.5
2017-Jun-22 12:30S 38°23' E 148°48'611.6
2017-Jun-22 11:59S 38°20' E 148°54'511.2
2017-Jun-22 11:30S 38°17' E 148°60'611.2
2017-Jun-22 10:59S 38°13' E 149°06'611.3
2017-Jun-22 10:30S 38°10' E 149°12'  
2017-Jun-17 10:00S 38°17' E 149°04'917.4
2017-Jun-17 09:30S 38°22' E 148°55'917.1
2017-Jun-17 09:00S 38°27' E 148°47'4117.4
2017-Jun-17 06:38S 38°50' E 148°03'817.6
2017-Jun-17 06:11S 38°53' E 147°53'617.4
2017-Jun-17 05:52S 38°55' E 147°47'617.3
2017-Jun-17 05:30S 38°57' E 147°39'917.2
2017-Jun-17 04:59S 39°00' E 147°28'2117.1
2017-Jun-17 03:47S 39°07' E 147°04'617.2
2017-Jun-17 03:27S 39°09' E 146°56'11312.4
2017-Jun-16 18:18S 38°08' E 144°55'918.3
2017-Jun-16 17:49S 37°59' E 144°55'413.0
2017-Jun-16 17:30S 37°55' E 144°56'5 9.9
2017-Jun-16 17:00S 37°51' E 144°54'2 4.0
2017-Jun-16 16:30S 37°49' E 144°55'0 0.0
2017-Jun-16 10:12S 37°49' E 144°55'0 0.0
2017-Jun-15 12:51S 37°49' E 144°55'0 0.0
2017-Jun-15 12:24S 37°49' E 144°55'0 0.0
2017-Jun-15 11:26S 37°49' E 144°55'1 1.2
2017-Jun-15 11:00S 37°49' E 144°55'7 6.9
2017-Jun-15 10:03S 37°56' E 144°56'114.1
2017-Jun-15 09:58S 37°57' E 144°56'816.4
2017-Jun-15 09:27S 38°05' E 144°56'  
Track history (hours):
 
Tides and Currents Weather Stations Pressure Air Temp Water Temp Dewpoint Dewpoint Depression Visibility Wind Speed Wind Dir Waves Ship Positions

Paul Gauguin

Operator: V Ships

Last reported at 2017-Jun-25 08:01 UTC. Time now 2017-Jun-25 08:34 UTC.
Position S 34°48' E 138°20'.

Length 277 m; draft 12.1 m.

Type: Ship (hazmat cat A). MMSI: 311632000.

Date/timePositionNaut miles runAvg speedWind from/ knotsBaromVisibWave heightAir tempDewpointWater temp
2017-Jun-25 08:01S 34°48' E 138°20'1 3.1
2017-Jun-25 07:38S 34°49' E 138°20'7 7.8
2017-Jun-25 06:48S 34°55' E 138°16'312.0
2017-Jun-25 06:30S 34°59' E 138°15'  
2017-Jun-22 13:21S 38°29' E 148°37'412.4
2017-Jun-22 12:59S 38°27' E 148°42'612.5
2017-Jun-22 12:30S 38°23' E 148°48'611.6
2017-Jun-22 11:59S 38°20' E 148°54'511.2
2017-Jun-22 11:30S 38°17' E 148°60'611.2
2017-Jun-22 10:59S 38°13' E 149°06'611.3
2017-Jun-22 10:30S 38°10' E 149°12'  
2017-Jun-17 10:00S 38°17' E 149°04'917.4
2017-Jun-17 09:30S 38°22' E 148°55'917.1
2017-Jun-17 09:00S 38°27' E 148°47'4117.4
2017-Jun-17 06:38S 38°50' E 148°03'817.6
2017-Jun-17 06:11S 38°53' E 147°53'617.4
2017-Jun-17 05:52S 38°55' E 147°47'617.3
2017-Jun-17 05:30S 38°57' E 147°39'917.2
2017-Jun-17 04:59S 39°00' E 147°28'2117.1
2017-Jun-17 03:47S 39°07' E 147°04'617.2
2017-Jun-17 03:27S 39°09' E 146°56'11312.4
2017-Jun-16 18:18S 38°08' E 144°55'918.3
2017-Jun-16 17:49S 37°59' E 144°55'413.0
2017-Jun-16 17:30S 37°55' E 144°56'5 9.9
2017-Jun-16 17:00S 37°51' E 144°54'2 4.0
2017-Jun-16 16:30S 37°49' E 144°55'0 0.0
2017-Jun-16 10:12S 37°49' E 144°55'0 0.0
2017-Jun-15 12:51S 37°49' E 144°55'0 0.0
2017-Jun-15 12:24S 37°49' E 144°55'0 0.0
2017-Jun-15 11:26S 37°49' E 144°55'1 1.2
2017-Jun-15 11:00S 37°49' E 144°55'7 6.9
2017-Jun-15 10:03S 37°56' E 144°56'114.1
2017-Jun-15 09:58S 37°57' E 144°56'816.4
2017-Jun-15 09:27S 38°05' E 144°56'  

Dump ship's entire track history